sensor_id;sensor_type;location;lat;lon;timestamp;temperature;humidity
5956;DHT22;3004;48.080;11.600;2022-12-18T00:20:27;-4.90;99.90
5956;DHT22;3004;48.080;11.600;2022-12-18T00:22:54;-4.90;99.90
5956;DHT22;3004;48.080;11.600;2022-12-18T00:25:25;-4.90;99.90
5956;DHT22;3004;48.080;11.600;2022-12-18T00:27:52;-5.00;99.90
5956;DHT22;3004;48.080;11.600;2022-12-18T00:30:21;-5.00;99.90
5956;DHT22;3004;48.080;11.600;2022-12-18T00:32:57;-5.10;99.90
5956;DHT22;3004;48.080;11.600;2022-12-18T00:35:24;-5.10;99.90
5956;DHT22;3004;48.080;11.600;2022-12-18T00:37:53;-5.10;99.90
5956;DHT22;3004;48.080;11.600;2022-12-18T00:40:20;-5.10;99.90
5956;DHT22;3004;48.080;11.600;2022-12-18T00:46:09;-5.10;99.90
5956;DHT22;3004;48.080;11.600;2022-12-18T00:48:36;-5.10;99.90
5956;DHT22;3004;48.080;11.600;2022-12-18T00:51:03;-5.10;99.90
5956;DHT22;3004;48.080;11.600;2022-12-18T00:53:33;-5.10;99.90
5956;DHT22;3004;48.080;11.600;2022-12-18T00:56:04;-5.20;99.90
5956;DHT22;3004;48.080;11.600;2022-12-18T00:58:33;-5.20;99.90
5956;DHT22;3004;48.080;11.600;2022-12-18T01:01:03;-5.20;99.90
5956;DHT22;3004;48.080;11.600;2022-12-18T01:03:30;-5.20;99.90
5956;DHT22;3004;48.080;11.600;2022-12-18T01:05:57;-5.20;99.90
5956;DHT22;3004;48.080;11.600;2022-12-18T01:08:28;-5.30;99.90
5956;DHT22;3004;48.080;11.600;2022-12-18T01:11:15;-5.20;99.90
5956;DHT22;3004;48.080;11.600;2022-12-18T01:13:44;-5.30;99.90
5956;DHT22;3004;48.080;11.600;2022-12-18T01:16:12;-5.30;99.90
5956;DHT22;3004;48.080;11.600;2022-12-18T01:18:42;-5.30;99.90
5956;DHT22;3004;48.080;11.600;2022-12-18T01:21:12;-5.30;99.90
5956;DHT22;3004;48.080;11.600;2022-12-18T01:23:45;-5.30;99.90
5956;DHT22;3004;48.080;11.600;2022-12-18T01:26:17;-5.30;99.90
5956;DHT22;3004;48.080;11.600;2022-12-18T01:28:44;-5.30;99.90
5956;DHT22;3004;48.080;11.600;2022-12-18T01:31:19;-5.30;99.90
5956;DHT22;3004;48.080;11.600;2022-12-18T01:33:47;-5.30;99.90
5956;DHT22;3004;48.080;11.600;2022-12-18T01:36:16;-5.30;99.90
5956;DHT22;3004;48.080;11.600;2022-12-18T01:38:47;-5.30;99.90
5956;DHT22;3004;48.080;11.600;2022-12-18T01:41:31;-5.30;99.90
5956;DHT22;3004;48.080;11.600;2022-12-18T01:47:41;-5.30;99.90
5956;DHT22;3004;48.080;11.600;2022-12-18T01:50:12;-5.40;99.90
5956;DHT22;3004;48.080;11.600;2022-12-18T01:52:41;-5.40;99.90
5956;DHT22;3004;48.080;11.600;2022-12-18T01:55:16;-5.30;99.90
5956;DHT22;3004;48.080;11.600;2022-12-18T01:57:47;-5.40;99.90
5956;DHT22;3004;48.080;11.600;2022-12-18T02:00:20;-5.30;99.90
5956;DHT22;3004;48.080;11.600;2022-12-18T02:03:01;-5.30;99.90
5956;DHT22;3004;48.080;11.600;2022-12-18T02:05:50;-5.30;99.90
5956;DHT22;3004;48.080;11.600;2022-12-18T02:08:35;-5.30;99.90
5956;DHT22;3004;48.080;11.600;2022-12-18T02:11:18;-5.30;99.90
5956;DHT22;3004;48.080;11.600;2022-12-18T02:14:00;-5.30;99.90
5956;DHT22;3004;48.080;11.600;2022-12-18T02:16:36;-5.30;99.90
5956;DHT22;3004;48.080;11.600;2022-12-18T02:19:25;-5.30;99.90
5956;DHT22;3004;48.080;11.600;2022-12-18T02:22:07;-5.30;99.90
5956;DHT22;3004;48.080;11.600;2022-12-18T02:24:44;-5.40;99.90
5956;DHT22;3004;48.080;11.600;2022-12-18T02:27:18;-5.40;99.90
5956;DHT22;3004;48.080;11.600;2022-12-18T02:29:50;-5.40;99.90
5956;DHT22;3004;48.080;11.600;2022-12-18T02:32:24;-5.40;99.90
5956;DHT22;3004;48.080;11.600;2022-12-18T02:34:58;-5.40;99.90
5956;DHT22;3004;48.080;11.600;2022-12-18T02:37:27;-5.40;99.90
5956;DHT22;3004;48.080;11.600;2022-12-18T02:39:56;-5.30;99.90
5956;DHT22;3004;48.080;11.600;2022-12-18T02:42:28;-5.30;99.90
5956;DHT22;3004;48.080;11.600;2022-12-18T02:44:55;-5.30;99.90
5956;DHT22;3004;48.080;11.600;2022-12-18T02:47:26;-5.20;99.90
5956;DHT22;3004;48.080;11.600;2022-12-18T02:50:07;-5.30;99.90
5956;DHT22;3004;48.080;11.600;2022-12-18T02:52:46;-5.30;99.90
5956;DHT22;3004;48.080;11.600;2022-12-18T02:55:27;-5.40;99.90
5956;DHT22;3004;48.080;11.600;2022-12-18T02:58:00;-5.30;99.90
5956;DHT22;3004;48.080;11.600;2022-12-18T03:00:33;-5.40;99.90
5956;DHT22;3004;48.080;11.600;2022-12-18T03:03:11;-5.30;99.90
5956;DHT22;3004;48.080;11.600;2022-12-18T03:05:45;-5.30;99.90
5956;DHT22;3004;48.080;11.600;2022-12-18T03:08:25;-5.30;99.90
5956;DHT22;3004;48.080;11.600;2022-12-18T03:11:02;-5.30;99.90
5956;DHT22;3004;48.080;11.600;2022-12-18T03:13:34;-5.30;99.90
5956;DHT22;3004;48.080;11.600;2022-12-18T03:16:08;-5.30;99.90
5956;DHT22;3004;48.080;11.600;2022-12-18T03:18:38;-5.20;99.90
5956;DHT22;3004;48.080;11.600;2022-12-18T03:21:09;-5.30;99.90
5956;DHT22;3004;48.080;11.600;2022-12-18T03:23:44;-5.30;99.90
5956;DHT22;3004;48.080;11.600;2022-12-18T03:26:16;-5.20;99.90
5956;DHT22;3004;48.080;11.600;2022-12-18T03:28:50;-5.20;99.90
5956;DHT22;3004;48.080;11.600;2022-12-18T03:31:21;-5.20;99.90
5956;DHT22;3004;48.080;11.600;2022-12-18T03:33:52;-5.20;99.90
5956;DHT22;3004;48.080;11.600;2022-12-18T03:36:19;-5.20;99.90
5956;DHT22;3004;48.080;11.600;2022-12-18T03:38:49;-5.20;99.90
5956;DHT22;3004;48.080;11.600;2022-12-18T03:41:24;-5.20;99.90
5956;DHT22;3004;48.080;11.600;2022-12-18T03:44:10;-5.20;99.90
5956;DHT22;3004;48.080;11.600;2022-12-18T03:46:46;-5.20;99.90
5956;DHT22;3004;48.080;11.600;2022-12-18T03:49:30;-5.20;99.90
5956;DHT22;3004;48.080;11.600;2022-12-18T03:52:02;-5.20;99.90
5956;DHT22;3004;48.080;11.600;2022-12-18T03:54:34;-5.20;99.90
5956;DHT22;3004;48.080;11.600;2022-12-18T03:57:05;-5.20;99.90
5956;DHT22;3004;48.080;11.600;2022-12-18T03:59:35;-5.20;99.90
5956;DHT22;3004;48.080;11.600;2022-12-18T04:02:05;-5.20;99.90
5956;DHT22;3004;48.080;11.600;2022-12-18T04:04:34;-5.20;99.90
5956;DHT22;3004;48.080;11.600;2022-12-18T04:07:02;-5.20;99.90
5956;DHT22;3004;48.080;11.600;2022-12-18T04:09:32;-5.20;99.90
5956;DHT22;3004;48.080;11.600;2022-12-18T04:12:00;-5.20;99.90
5956;DHT22;3004;48.080;11.600;2022-12-18T04:14:30;-5.20;99.90
5956;DHT22;3004;48.080;11.600;2022-12-18T04:17:03;-5.20;99.90
5956;DHT22;3004;48.080;11.600;2022-12-18T04:19:30;-5.20;99.90
5956;DHT22;3004;48.080;11.600;2022-12-18T04:21:57;-5.20;99.90
5956;DHT22;3004;48.080;11.600;2022-12-18T04:24:31;-5.20;99.90
5956;DHT22;3004;48.080;11.600;2022-12-18T04:26:58;-5.20;99.90
5956;DHT22;3004;48.080;11.600;2022-12-18T04:29:29;-5.20;99.90
5956;DHT22;3004;48.080;11.600;2022-12-18T04:31:56;-5.20;99.90
5956;DHT22;3004;48.080;11.600;2022-12-18T04:34:32;-5.20;99.90
5956;DHT22;3004;48.080;11.600;2022-12-18T04:36:59;-5.20;99.90
5956;DHT22;3004;48.080;11.600;2022-12-18T04:39:29;-5.20;99.90
5956;DHT22;3004;48.080;11.600;2022-12-18T04:41:57;-5.20;99.90
5956;DHT22;3004;48.080;11.600;2022-12-18T04:44:25;-5.20;99.90
5956;DHT22;3004;48.080;11.600;2022-12-18T04:46:52;-5.30;99.90
5956;DHT22;3004;48.080;11.600;2022-12-18T04:49:19;-5.20;99.90
5956;DHT22;3004;48.080;11.600;2022-12-18T04:51:47;-5.20;99.90
5956;DHT22;3004;48.080;11.600;2022-12-18T04:54:14;-5.20;99.90
5956;DHT22;3004;48.080;11.600;2022-12-18T04:56:42;-5.30;99.90
5956;DHT22;3004;48.080;11.600;2022-12-18T04:59:09;-5.40;99.90
5956;DHT22;3004;48.080;11.600;2022-12-18T05:01:35;-5.30;99.90
5956;DHT22;3004;48.080;11.600;2022-12-18T05:04:05;-5.40;99.90
5956;DHT22;3004;48.080;11.600;2022-12-18T05:06:34;-5.30;99.90
5956;DHT22;3004;48.080;11.600;2022-12-18T05:09:03;-5.30;99.90
5956;DHT22;3004;48.080;11.600;2022-12-18T05:11:30;-5.30;99.90
5956;DHT22;3004;48.080;11.600;2022-12-18T05:13:57;-5.30;99.90
5956;DHT22;3004;48.080;11.600;2022-12-18T05:16:24;-5.40;99.90
5956;DHT22;3004;48.080;11.600;2022-12-18T05:18:52;-5.40;99.90
5956;DHT22;3004;48.080;11.600;2022-12-18T05:21:19;-5.50;99.90
5956;DHT22;3004;48.080;11.600;2022-12-18T05:23:46;-5.50;99.90
5956;DHT22;3004;48.080;11.600;2022-12-18T05:26:18;-5.40;99.90
5956;DHT22;3004;48.080;11.600;2022-12-18T05:28:47;-5.50;99.90
5956;DHT22;3004;48.080;11.600;2022-12-18T05:31:14;-5.50;99.90
5956;DHT22;3004;48.080;11.600;2022-12-18T05:33:43;-5.40;99.90
5956;DHT22;3004;48.080;11.600;2022-12-18T05:36:10;-5.50;99.90
5956;DHT22;3004;48.080;11.600;2022-12-18T05:38:38;-5.40;99.90
5956;DHT22;3004;48.080;11.600;2022-12-18T05:41:10;-5.40;99.90
5956;DHT22;3004;48.080;11.600;2022-12-18T05:43:39;-5.40;99.90
5956;DHT22;3004;48.080;11.600;2022-12-18T05:46:07;-5.40;99.90
5956;DHT22;3004;48.080;11.600;2022-12-18T05:48:36;-5.40;99.90
5956;DHT22;3004;48.080;11.600;2022-12-18T05:51:05;-5.40;99.90
5956;DHT22;3004;48.080;11.600;2022-12-18T05:53:35;-5.40;99.90
5956;DHT22;3004;48.080;11.600;2022-12-18T05:56:05;-5.40;99.90
5956;DHT22;3004;48.080;11.600;2022-12-18T05:58:33;-5.40;99.90
5956;DHT22;3004;48.080;11.600;2022-12-18T06:01:10;-5.40;99.90
5956;DHT22;3004;48.080;11.600;2022-12-18T06:03:39;-5.40;99.90
5956;DHT22;3004;48.080;11.600;2022-12-18T06:06:13;-5.30;99.90
5956;DHT22;3004;48.080;11.600;2022-12-18T06:08:42;-5.30;99.90
5956;DHT22;3004;48.080;11.600;2022-12-18T06:11:10;-5.30;99.90
5956;DHT22;3004;48.080;11.600;2022-12-18T06:16:32;-5.40;99.90
5956;DHT22;3004;48.080;11.600;2022-12-18T06:19:01;-5.40;99.90
5956;DHT22;3004;48.080;11.600;2022-12-18T06:21:29;-5.40;99.90
5956;DHT22;3004;48.080;11.600;2022-12-18T06:23:56;-5.50;99.90
5956;DHT22;3004;48.080;11.600;2022-12-18T06:26:46;-5.40;99.90
5956;DHT22;3004;48.080;11.600;2022-12-18T06:33:15;-5.50;99.90
5956;DHT22;3004;48.080;11.600;2022-12-18T06:35:46;-5.50;99.90
5956;DHT22;3004;48.080;11.600;2022-12-18T06:38:13;-5.50;99.90
5956;DHT22;3004;48.080;11.600;2022-12-18T06:40:40;-5.50;99.90
5956;DHT22;3004;48.080;11.600;2022-12-18T06:43:09;-5.50;99.90
5956;DHT22;3004;48.080;11.600;2022-12-18T06:45:36;-5.50;99.90
5956;DHT22;3004;48.080;11.600;2022-12-18T06:48:06;-5.50;99.90
5956;DHT22;3004;48.080;11.600;2022-12-18T06:50:43;-5.50;99.90
5956;DHT22;3004;48.080;11.600;2022-12-18T06:53:10;-5.50;99.90
5956;DHT22;3004;48.080;11.600;2022-12-18T06:55:40;-5.60;99.90
5956;DHT22;3004;48.080;11.600;2022-12-18T06:58:07;-5.50;99.90
5956;DHT22;3004;48.080;11.600;2022-12-18T07:00:37;-5.50;99.90
5956;DHT22;3004;48.080;11.600;2022-12-18T07:03:25;-5.50;99.90
5956;DHT22;3004;48.080;11.600;2022-12-18T07:16:36;-5.60;99.90
5956;DHT22;3004;48.080;11.600;2022-12-18T07:19:03;-5.60;99.90
5956;DHT22;3004;48.080;11.600;2022-12-18T07:21:31;-5.60;99.90
5956;DHT22;3004;48.080;11.600;2022-12-18T07:24:01;-5.60;99.90
5956;DHT22;3004;48.080;11.600;2022-12-18T07:26:29;-5.70;99.90
5956;DHT22;3004;48.080;11.600;2022-12-18T07:28:57;-5.70;99.90
5956;DHT22;3004;48.080;11.600;2022-12-18T07:31:25;-5.80;99.90
5956;DHT22;3004;48.080;11.600;2022-12-18T07:33:54;-5.90;99.90
5956;DHT22;3004;48.080;11.600;2022-12-18T07:36:21;-5.90;99.90
5956;DHT22;3004;48.080;11.600;2022-12-18T07:38:52;-5.90;99.90
5956;DHT22;3004;48.080;11.600;2022-12-18T07:41:20;-5.90;99.90
5956;DHT22;3004;48.080;11.600;2022-12-18T07:43:52;-5.90;99.90
5956;DHT22;3004;48.080;11.600;2022-12-18T07:46:20;-5.90;99.90
5956;DHT22;3004;48.080;11.600;2022-12-18T07:48:47;-5.90;99.90
5956;DHT22;3004;48.080;11.600;2022-12-18T07:51:16;-5.80;99.90
5956;DHT22;3004;48.080;11.600;2022-12-18T07:53:55;-5.80;99.90
5956;DHT22;3004;48.080;11.600;2022-12-18T07:56:23;-5.80;99.90
5956;DHT22;3004;48.080;11.600;2022-12-18T07:58:51;-5.90;99.90
5956;DHT22;3004;48.080;11.600;2022-12-18T08:01:19;-5.80;99.90
5956;DHT22;3004;48.080;11.600;2022-12-18T08:03:50;-5.70;99.90
5956;DHT22;3004;48.080;11.600;2022-12-18T08:06:19;-5.90;99.90
5956;DHT22;3004;48.080;11.600;2022-12-18T08:08:50;-5.90;99.90
5956;DHT22;3004;48.080;11.600;2022-12-18T08:11:19;-5.90;99.90
5956;DHT22;3004;48.080;11.600;2022-12-18T08:13:47;-6.00;99.90
5956;DHT22;3004;48.080;11.600;2022-12-18T08:16:16;-6.00;99.90
5956;DHT22;3004;48.080;11.600;2022-12-18T08:18:45;-5.90;99.90
5956;DHT22;3004;48.080;11.600;2022-12-18T08:21:36;-5.90;99.90
5956;DHT22;3004;48.080;11.600;2022-12-18T08:24:05;-5.80;99.90
5956;DHT22;3004;48.080;11.600;2022-12-18T08:26:36;-6.00;99.90
5956;DHT22;3004;48.080;11.600;2022-12-18T08:29:06;-5.90;99.90
5956;DHT22;3004;48.080;11.600;2022-12-18T08:31:33;-5.90;99.90
5956;DHT22;3004;48.080;11.600;2022-12-18T08:34:01;-5.90;99.90
5956;DHT22;3004;48.080;11.600;2022-12-18T08:36:28;-5.90;99.90
5956;DHT22;3004;48.080;11.600;2022-12-18T08:38:57;-5.90;99.90
5956;DHT22;3004;48.080;11.600;2022-12-18T08:41:25;-5.70;99.90
5956;DHT22;3004;48.080;11.600;2022-12-18T08:43:54;-5.60;99.90
5956;DHT22;3004;48.080;11.600;2022-12-18T08:46:42;-5.60;99.90
5956;DHT22;3004;48.080;11.600;2022-12-18T08:49:11;-5.70;99.90
5956;DHT22;3004;48.080;11.600;2022-12-18T08:51:42;-5.70;99.90
5956;DHT22;3004;48.080;11.600;2022-12-18T08:54:14;-5.70;99.90
5956;DHT22;3004;48.080;11.600;2022-12-18T08:56:42;-5.80;99.90
5956;DHT22;3004;48.080;11.600;2022-12-18T08:59:11;-5.80;99.90
5956;DHT22;3004;48.080;11.600;2022-12-18T09:01:39;-5.70;99.90
5956;DHT22;3004;48.080;11.600;2022-12-18T09:04:10;-5.60;99.90
5956;DHT22;3004;48.080;11.600;2022-12-18T09:06:37;-5.60;99.90
5956;DHT22;3004;48.080;11.600;2022-12-18T09:09:08;-5.70;99.90
5956;DHT22;3004;48.080;11.600;2022-12-18T09:11:39;-5.90;99.90
5956;DHT22;3004;48.080;11.600;2022-12-18T09:14:12;-5.80;99.90
5956;DHT22;3004;48.080;11.600;2022-12-18T09:16:41;-6.00;99.90
5956;DHT22;3004;48.080;11.600;2022-12-18T09:19:09;-6.00;99.90
5956;DHT22;3004;48.080;11.600;2022-12-18T09:21:36;-6.00;99.90
5956;DHT22;3004;48.080;11.600;2022-12-18T09:24:05;-6.00;99.90
5956;DHT22;3004;48.080;11.600;2022-12-18T09:26:40;-5.90;99.90
5956;DHT22;3004;48.080;11.600;2022-12-18T09:29:07;-5.80;99.90
5956;DHT22;3004;48.080;11.600;2022-12-18T09:31:38;-6.00;99.90
5956;DHT22;3004;48.080;11.600;2022-12-18T09:34:05;-5.90;99.90
5956;DHT22;3004;48.080;11.600;2022-12-18T09:36:33;-6.00;99.90
5956;DHT22;3004;48.080;11.600;2022-12-18T09:39:00;-6.00;99.90
5956;DHT22;3004;48.080;11.600;2022-12-18T09:41:40;-5.90;99.90
5956;DHT22;3004;48.080;11.600;2022-12-18T09:44:28;-5.90;99.90
5956;DHT22;3004;48.080;11.600;2022-12-18T09:47:07;-5.70;99.90
5956;DHT22;3004;48.080;11.600;2022-12-18T09:49:40;-5.80;99.90
5956;DHT22;3004;48.080;11.600;2022-12-18T09:52:17;-5.80;99.90
5956;DHT22;3004;48.080;11.600;2022-12-18T09:54:49;-5.80;99.90
5956;DHT22;3004;48.080;11.600;2022-12-18T09:57:21;-5.80;99.90
5956;DHT22;3004;48.080;11.600;2022-12-18T09:59:53;-5.80;99.90
5956;DHT22;3004;48.080;11.600;2022-12-18T10:02:23;-6.10;99.90
5956;DHT22;3004;48.080;11.600;2022-12-18T10:05:02;-6.00;99.90
5956;DHT22;3004;48.080;11.600;2022-12-18T10:07:39;-5.90;99.90
5956;DHT22;3004;48.080;11.600;2022-12-18T10:10:19;-5.80;99.90
5956;DHT22;3004;48.080;11.600;2022-12-18T10:12:56;-5.90;99.90
5956;DHT22;3004;48.080;11.600;2022-12-18T10:15:34;-5.70;99.90
5956;DHT22;3004;48.080;11.600;2022-12-18T10:18:18;-5.80;99.90
5956;DHT22;3004;48.080;11.600;2022-12-18T10:21:00;-5.70;99.90
5956;DHT22;3004;48.080;11.600;2022-12-18T10:23:35;-5.50;99.90
5956;DHT22;3004;48.080;11.600;2022-12-18T10:26:06;-5.60;99.90
5956;DHT22;3004;48.080;11.600;2022-12-18T10:28:36;-5.50;99.90
5956;DHT22;3004;48.080;11.600;2022-12-18T10:31:05;-5.50;99.90
5956;DHT22;3004;48.080;11.600;2022-12-18T10:33:33;-5.60;99.90
5956;DHT22;3004;48.080;11.600;2022-12-18T10:36:01;-5.60;99.90
5956;DHT22;3004;48.080;11.600;2022-12-18T10:38:43;-5.50;99.90
5956;DHT22;3004;48.080;11.600;2022-12-18T10:41:24;-5.60;99.90
5956;DHT22;3004;48.080;11.600;2022-12-18T10:44:15;-5.70;99.90
5956;DHT22;3004;48.080;11.600;2022-12-18T10:46:46;-6.00;99.90
5956;DHT22;3004;48.080;11.600;2022-12-18T10:49:27;-5.90;99.90
5956;DHT22;3004;48.080;11.600;2022-12-18T10:52:14;-6.10;99.90
5956;DHT22;3004;48.080;11.600;2022-12-18T10:54:49;-5.90;99.90
5956;DHT22;3004;48.080;11.600;2022-12-18T10:57:30;-6.00;99.90
5956;DHT22;3004;48.080;11.600;2022-12-18T11:00:20;-6.00;99.90
5956;DHT22;3004;48.080;11.600;2022-12-18T11:02:50;-6.10;99.90
5956;DHT22;3004;48.080;11.600;2022-12-18T11:05:30;-6.20;99.90
5956;DHT22;3004;48.080;11.600;2022-12-18T11:08:00;-6.10;99.90
5956;DHT22;3004;48.080;11.600;2022-12-18T11:10:31;-6.00;99.90
5956;DHT22;3004;48.080;11.600;2022-12-18T11:13:15;-5.90;99.90
5956;DHT22;3004;48.080;11.600;2022-12-18T11:15:49;-5.80;99.90
5956;DHT22;3004;48.080;11.600;2022-12-18T11:18:23;-5.70;99.90
5956;DHT22;3004;48.080;11.600;2022-12-18T11:20:54;-5.80;99.90
5956;DHT22;3004;48.080;11.600;2022-12-18T11:23:23;-5.70;99.90
5956;DHT22;3004;48.080;11.600;2022-12-18T11:25:58;-5.60;99.90
5956;DHT22;3004;48.080;11.600;2022-12-18T11:28:36;-5.70;99.90
5956;DHT22;3004;48.080;11.600;2022-12-18T11:31:25;-5.50;99.90
5956;DHT22;3004;48.080;11.600;2022-12-18T11:34:00;-5.50;99.90
5956;DHT22;3004;48.080;11.600;2022-12-18T11:36:32;-5.70;99.90
5956;DHT22;3004;48.080;11.600;2022-12-18T11:39:07;-5.80;99.90
5956;DHT22;3004;48.080;11.600;2022-12-18T11:41:41;-5.90;99.90
5956;DHT22;3004;48.080;11.600;2022-12-18T11:44:38;-5.90;99.90
5956;DHT22;3004;48.080;11.600;2022-12-18T11:47:15;-5.70;99.90
5956;DHT22;3004;48.080;11.600;2022-12-18T11:49:49;-5.60;99.90
5956;DHT22;3004;48.080;11.600;2022-12-18T11:52:19;-5.40;99.90
5956;DHT22;3004;48.080;11.600;2022-12-18T11:54:52;-5.40;99.90
5956;DHT22;3004;48.080;11.600;2022-12-18T11:57:28;-5.50;99.90
5956;DHT22;3004;48.080;11.600;2022-12-18T12:00:04;-5.60;99.90
5956;DHT22;3004;48.080;11.600;2022-12-18T12:06:00;-5.60;99.90
5956;DHT22;3004;48.080;11.600;2022-12-18T12:08:39;-5.30;99.90
5956;DHT22;3004;48.080;11.600;2022-12-18T12:11:18;-5.40;99.90
5956;DHT22;3004;48.080;11.600;2022-12-18T12:13:57;-5.50;99.90
5956;DHT22;3004;48.080;11.600;2022-12-18T12:16:29;-5.60;99.90
5956;DHT22;3004;48.080;11.600;2022-12-18T12:19:15;-5.50;99.90
5956;DHT22;3004;48.080;11.600;2022-12-18T12:21:51;-5.50;99.90
5956;DHT22;3004;48.080;11.600;2022-12-18T12:24:30;-5.50;99.90
5956;DHT22;3004;48.080;11.600;2022-12-18T12:27:07;-5.50;99.90
5956;DHT22;3004;48.080;11.600;2022-12-18T12:29:49;-5.60;99.90
5956;DHT22;3004;48.080;11.600;2022-12-18T12:32:29;-5.50;99.90
5956;DHT22;3004;48.080;11.600;2022-12-18T12:35:09;-5.40;99.90
5956;DHT22;3004;48.080;11.600;2022-12-18T12:37:48;-5.40;99.90
5956;DHT22;3004;48.080;11.600;2022-12-18T12:40:19;-5.40;99.90
5956;DHT22;3004;48.080;11.600;2022-12-18T12:42:54;-5.50;99.90
5956;DHT22;3004;48.080;11.600;2022-12-18T12:45:46;-5.40;99.90
5956;DHT22;3004;48.080;11.600;2022-12-18T12:48:22;-5.40;99.90
5956;DHT22;3004;48.080;11.600;2022-12-18T12:50:52;-5.50;99.90
5956;DHT22;3004;48.080;11.600;2022-12-18T12:53:28;-5.40;99.90
5956;DHT22;3004;48.080;11.600;2022-12-18T12:55:57;-5.40;99.90
5956;DHT22;3004;48.080;11.600;2022-12-18T12:58:31;-5.40;99.90
5956;DHT22;3004;48.080;11.600;2022-12-18T13:01:11;-5.50;99.90
5956;DHT22;3004;48.080;11.600;2022-12-18T13:03:46;-5.60;99.90
5956;DHT22;3004;48.080;11.600;2022-12-18T13:06:27;-5.50;99.90
5956;DHT22;3004;48.080;11.600;2022-12-18T13:09:00;-5.40;99.90
5956;DHT22;3004;48.080;11.600;2022-12-18T13:11:34;-5.40;99.90
5956;DHT22;3004;48.080;11.600;2022-12-18T13:14:29;-5.30;99.90
5956;DHT22;3004;48.080;11.600;2022-12-18T13:17:21;-5.40;99.90
5956;DHT22;3004;48.080;11.600;2022-12-18T13:20:04;-5.50;99.90
5956;DHT22;3004;48.080;11.600;2022-12-18T13:22:36;-5.50;99.90
5956;DHT22;3004;48.080;11.600;2022-12-18T13:25:34;-5.80;99.90
5956;DHT22;3004;48.080;11.600;2022-12-18T13:28:08;-5.80;99.90
5956;DHT22;3004;48.080;11.600;2022-12-18T13:30:44;-5.70;99.90
5956;DHT22;3004;48.080;11.600;2022-12-18T13:36:32;-5.80;99.90
5956;DHT22;3004;48.080;11.600;2022-12-18T13:39:33;-5.80;99.90
5956;DHT22;3004;48.080;11.600;2022-12-18T13:45:44;-5.80;99.90
5956;DHT22;3004;48.080;11.600;2022-12-18T13:48:19;-5.80;99.90
5956;DHT22;3004;48.080;11.600;2022-12-18T13:50:58;-5.80;99.90
5956;DHT22;3004;48.080;11.600;2022-12-18T13:53:29;-5.70;99.90
5956;DHT22;3004;48.080;11.600;2022-12-18T13:55:57;-5.60;99.90
5956;DHT22;3004;48.080;11.600;2022-12-18T13:58:36;-5.60;99.90
5956;DHT22;3004;48.080;11.600;2022-12-18T14:01:23;-5.60;99.90
5956;DHT22;3004;48.080;11.600;2022-12-18T14:03:50;-5.60;99.90
5956;DHT22;3004;48.080;11.600;2022-12-18T14:06:20;-5.60;99.90
5956;DHT22;3004;48.080;11.600;2022-12-18T14:08:52;-5.70;99.90
5956;DHT22;3004;48.080;11.600;2022-12-18T14:11:22;-5.60;99.90
5956;DHT22;3004;48.080;11.600;2022-12-18T14:13:52;-5.60;99.90
5956;DHT22;3004;48.080;11.600;2022-12-18T14:16:23;-5.60;99.90
5956;DHT22;3004;48.080;11.600;2022-12-18T14:18:53;-5.80;99.90
5956;DHT22;3004;48.080;11.600;2022-12-18T14:21:23;-5.70;99.90
5956;DHT22;3004;48.080;11.600;2022-12-18T14:24:04;-5.80;99.90
5956;DHT22;3004;48.080;11.600;2022-12-18T14:26:32;-5.70;99.90
5956;DHT22;3004;48.080;11.600;2022-12-18T14:29:11;-5.60;99.90
5956;DHT22;3004;48.080;11.600;2022-12-18T14:31:45;-5.60;99.90
5956;DHT22;3004;48.080;11.600;2022-12-18T14:34:15;-5.70;99.90
5956;DHT22;3004;48.080;11.600;2022-12-18T14:36:52;-5.70;99.90
5956;DHT22;3004;48.080;11.600;2022-12-18T14:39:21;-5.60;99.90
5956;DHT22;3004;48.080;11.600;2022-12-18T14:41:51;-5.70;99.90
5956;DHT22;3004;48.080;11.600;2022-12-18T14:44:18;-5.80;99.90
5956;DHT22;3004;48.080;11.600;2022-12-18T14:46:49;-5.80;99.90
5956;DHT22;3004;48.080;11.600;2022-12-18T14:49:26;-5.80;99.90
5956;DHT22;3004;48.080;11.600;2022-12-18T14:51:55;-5.70;99.90
5956;DHT22;3004;48.080;11.600;2022-12-18T14:54:28;-5.60;99.90
5956;DHT22;3004;48.080;11.600;2022-12-18T14:57:02;-5.60;99.90
5956;DHT22;3004;48.080;11.600;2022-12-18T14:59:30;-5.70;99.90
5956;DHT22;3004;48.080;11.600;2022-12-18T15:02:03;-5.70;99.90
5956;DHT22;3004;48.080;11.600;2022-12-18T15:04:37;-5.60;99.90
5956;DHT22;3004;48.080;11.600;2022-12-18T15:07:09;-5.60;99.90
5956;DHT22;3004;48.080;11.600;2022-12-18T15:09:39;-5.70;99.90
5956;DHT22;3004;48.080;11.600;2022-12-18T15:12:28;-5.70;99.90
5956;DHT22;3004;48.080;11.600;2022-12-18T15:15:00;-5.70;99.90
5956;DHT22;3004;48.080;11.600;2022-12-18T15:17:30;-5.70;99.90
5956;DHT22;3004;48.080;11.600;2022-12-18T15:20:00;-5.80;99.90
5956;DHT22;3004;48.080;11.600;2022-12-18T15:22:30;-5.90;99.90
5956;DHT22;3004;48.080;11.600;2022-12-18T15:24:58;-6.10;99.90
5956;DHT22;3004;48.080;11.600;2022-12-18T15:27:31;-6.10;99.90
5956;DHT22;3004;48.080;11.600;2022-12-18T15:30:21;-6.10;99.90
5956;DHT22;3004;48.080;11.600;2022-12-18T15:32:50;-6.10;99.90
5956;DHT22;3004;48.080;11.600;2022-12-18T15:35:20;-6.10;99.90
5956;DHT22;3004;48.080;11.600;2022-12-18T15:37:48;-6.00;99.90
5956;DHT22;3004;48.080;11.600;2022-12-18T15:40:18;-6.00;99.90
5956;DHT22;3004;48.080;11.600;2022-12-18T15:42:46;-5.90;99.90
5956;DHT22;3004;48.080;11.600;2022-12-18T15:45:39;-6.00;99.90
5956;DHT22;3004;48.080;11.600;2022-12-18T15:48:20;-5.90;99.90
5956;DHT22;3004;48.080;11.600;2022-12-18T15:50:50;-5.90;99.90
5956;DHT22;3004;48.080;11.600;2022-12-18T15:53:21;-5.80;99.90
5956;DHT22;3004;48.080;11.600;2022-12-18T15:55:50;-5.70;99.90
5956;DHT22;3004;48.080;11.600;2022-12-18T15:58:35;-5.80;99.90
5956;DHT22;3004;48.080;11.600;2022-12-18T16:01:18;-5.80;99.90
5956;DHT22;3004;48.080;11.600;2022-12-18T16:03:48;-6.00;99.90
5956;DHT22;3004;48.080;11.600;2022-12-18T16:06:16;-5.90;99.90
5956;DHT22;3004;48.080;11.600;2022-12-18T16:08:43;-5.90;99.90
5956;DHT22;3004;48.080;11.600;2022-12-18T16:11:20;-5.80;99.90
5956;DHT22;3004;48.080;11.600;2022-12-18T16:14:04;-5.80;99.90
5956;DHT22;3004;48.080;11.600;2022-12-18T16:16:33;-5.80;99.90
5956;DHT22;3004;48.080;11.600;2022-12-18T16:19:06;-5.80;99.90
5956;DHT22;3004;48.080;11.600;2022-12-18T16:21:35;-5.80;99.90
5956;DHT22;3004;48.080;11.600;2022-12-18T16:24:02;-5.70;99.90
5956;DHT22;3004;48.080;11.600;2022-12-18T16:26:33;-6.00;99.90
5956;DHT22;3004;48.080;11.600;2022-12-18T16:29:01;-6.00;99.90
5956;DHT22;3004;48.080;11.600;2022-12-18T16:31:30;-6.00;99.90
5956;DHT22;3004;48.080;11.600;2022-12-18T16:34:18;-6.00;99.90
5956;DHT22;3004;48.080;11.600;2022-12-18T16:36:47;-6.00;99.90
5956;DHT22;3004;48.080;11.600;2022-12-18T16:39:14;-5.90;99.90
5956;DHT22;3004;48.080;11.600;2022-12-18T16:41:41;-5.90;99.90
5956;DHT22;3004;48.080;11.600;2022-12-18T16:44:13;-5.80;99.90
5956;DHT22;3004;48.080;11.600;2022-12-18T16:46:41;-5.80;99.90
5956;DHT22;3004;48.080;11.600;2022-12-18T16:49:16;-5.70;99.90
5956;DHT22;3004;48.080;11.600;2022-12-18T16:51:47;-5.70;99.90
5956;DHT22;3004;48.080;11.600;2022-12-18T16:54:14;-6.00;99.90
5956;DHT22;3004;48.080;11.600;2022-12-18T16:56:43;-6.00;99.90
5956;DHT22;3004;48.080;11.600;2022-12-18T16:59:14;-6.00;99.90
5956;DHT22;3004;48.080;11.600;2022-12-18T17:01:42;-6.00;99.90
5956;DHT22;3004;48.080;11.600;2022-12-18T17:04:09;-5.90;99.90
5956;DHT22;3004;48.080;11.600;2022-12-18T17:06:41;-5.80;99.90
5956;DHT22;3004;48.080;11.600;2022-12-18T17:09:17;-5.90;99.90
5956;DHT22;3004;48.080;11.600;2022-12-18T17:11:45;-5.80;99.90
5956;DHT22;3004;48.080;11.600;2022-12-18T17:14:16;-5.80;99.90